createdAt,value
2018-05-15T00:00:45.745Z,14.86
2018-05-15T00:03:12.199Z,14.79
2018-05-15T00:05:38.561Z,14.77
2018-05-15T00:08:09.811Z,14.74
2018-05-15T00:10:36.887Z,14.75
2018-05-15T00:13:03.229Z,14.72
2018-05-15T00:15:29.875Z,14.77
2018-05-15T00:17:56.363Z,14.76
2018-05-15T00:20:22.721Z,14.74
2018-05-15T00:22:49.682Z,14.66
2018-05-15T00:25:20.195Z,14.58
2018-05-15T00:27:46.560Z,14.42
2018-05-15T00:30:13.634Z,14.42
2018-05-15T00:32:40.723Z,14.18
2018-05-15T00:35:08.630Z,14.25
2018-05-15T00:37:34.913Z,14.07
2018-05-15T00:40:01.401Z,13.85
2018-05-15T00:42:31.949Z,13.82
2018-05-15T00:44:59.698Z,13.76
2018-05-15T00:47:26.862Z,13.66
2018-05-15T00:49:55.117Z,13.66
2018-05-15T00:52:21.498Z,13.65
2018-05-15T00:57:57.194Z,13.73
2018-05-15T01:00:24.211Z,13.75
2018-05-15T01:02:55.112Z,13.65
2018-05-15T01:05:21.489Z,13.67
2018-05-15T01:07:47.818Z,13.72
2018-05-15T01:10:14.187Z,13.83
2018-05-15T01:12:40.638Z,13.78
2018-05-15T01:15:06.950Z,13.81
2018-05-15T01:17:34.023Z,13.89
2018-05-15T01:20:01.043Z,14.01
2018-05-15T01:22:28.198Z,14.11
2018-05-15T01:24:54.661Z,14.05
2018-05-15T01:27:21.092Z,13.99
2018-05-15T01:29:47.960Z,13.93
2018-05-15T01:32:14.318Z,13.85
2018-05-15T01:34:41.600Z,13.91
2018-05-15T01:37:08.109Z,13.84
2018-05-15T01:39:35.263Z,13.74
2018-05-15T01:42:02.332Z,13.72
2018-05-15T01:44:28.636Z,13.69
2018-05-15T01:46:55.837Z,13.71
2018-05-15T01:49:22.161Z,13.69
2018-05-15T01:51:48.493Z,13.69
2018-05-15T01:54:15.032Z,13.60
2018-05-15T01:56:45.895Z,13.49
2018-05-15T01:59:12.291Z,13.66
2018-05-15T02:01:39.187Z,13.64
2018-05-15T02:04:06.281Z,13.54
2018-05-15T02:06:32.602Z,13.54
2018-05-15T02:08:58.997Z,13.60
2018-05-15T02:11:26.050Z,13.63
2018-05-15T02:13:53.112Z,13.70
2018-05-15T02:16:19.443Z,13.80
2018-05-15T02:18:45.740Z,13.78
2018-05-15T02:21:12.097Z,13.71
2018-05-15T02:23:38.410Z,13.69
2018-05-15T02:26:05.613Z,13.69
2018-05-15T02:28:31.950Z,13.70
2018-05-15T02:30:58.248Z,13.55
2018-05-15T02:33:24.577Z,13.61
2018-05-15T02:35:50.890Z,13.49
2018-05-15T02:38:17.194Z,13.38
2018-05-15T02:40:44.259Z,13.44
2018-05-15T02:43:11.307Z,13.53
2018-05-15T02:45:38.379Z,13.48
2018-05-15T02:48:04.723Z,13.47
2018-05-15T02:50:31.068Z,13.57
2018-05-15T02:52:57.461Z,13.67
2018-05-15T02:55:23.818Z,13.57
2018-05-15T02:57:50.145Z,13.67
2018-05-15T03:00:16.514Z,13.64
2018-05-15T03:02:42.886Z,13.61
2018-05-15T03:05:09.198Z,13.59
2018-05-15T03:07:35.518Z,13.63
2018-05-15T03:10:02.649Z,13.61
2018-05-15T03:12:29.032Z,13.62
2018-05-15T03:14:55.384Z,13.65
2018-05-15T03:17:21.719Z,13.78
2018-05-15T03:19:48.041Z,13.77
2018-05-15T03:22:14.404Z,13.72
2018-05-15T03:24:41.451Z,13.82
2018-05-15T03:27:08.566Z,13.84
2018-05-15T03:29:34.903Z,13.75
2018-05-15T03:32:01.274Z,13.92
2018-05-15T03:34:27.654Z,13.89
2018-05-15T03:36:53.950Z,13.84
2018-05-15T03:39:24.260Z,13.73
2018-05-15T03:41:50.632Z,13.75
2018-05-15T03:44:17.022Z,13.78
2018-05-15T03:46:44.118Z,13.82
2018-05-15T03:49:10.502Z,13.88
2018-05-15T03:51:36.825Z,13.89
2018-05-15T03:54:03.204Z,13.82
2018-05-15T03:56:29.617Z,13.94
2018-05-15T03:58:56.061Z,13.88
2018-05-15T04:01:40.835Z,13.82
2018-05-15T04:04:26.408Z,13.86
2018-05-15T04:07:11.126Z,13.91
2018-05-15T04:09:37.468Z,14.01
2018-05-15T04:12:03.800Z,14.08
2018-05-15T04:14:30.198Z,13.99
2018-05-15T04:16:57.280Z,14.11
2018-05-15T04:19:23.604Z,14.09
2018-05-15T04:21:49.906Z,14.04
2018-05-15T04:24:17.037Z,14.14
2018-05-15T04:26:43.357Z,14.02
2018-05-15T04:29:10.687Z,14.02
2018-05-15T04:31:37.103Z,14.09
2018-05-15T04:34:03.445Z,14.24
2018-05-15T04:36:29.841Z,14.34
2018-05-15T04:38:56.187Z,14.40
2018-05-15T04:41:22.567Z,14.60
2018-05-15T04:43:49.240Z,14.57
2018-05-15T04:46:16.098Z,14.47
2018-05-15T04:48:42.412Z,14.43
2018-05-15T04:51:08.966Z,14.51
2018-05-15T04:53:35.323Z,14.51
2018-05-15T04:56:01.845Z,14.32
2018-05-15T04:58:28.275Z,14.30
2018-05-15T05:00:54.813Z,14.55
2018-05-15T05:03:21.232Z,14.59
2018-05-15T05:05:47.697Z,14.63
2018-05-15T05:08:14.042Z,14.61
2018-05-15T05:10:40.417Z,14.73
2018-05-15T05:13:06.921Z,14.72
2018-05-15T05:15:34.072Z,14.71
2018-05-15T05:18:01.255Z,14.66
2018-05-15T05:20:27.664Z,14.72
2018-05-15T05:22:55.113Z,14.52
2018-05-15T05:25:22.241Z,14.46
2018-05-15T05:27:48.649Z,14.50
2018-05-15T05:30:14.979Z,14.49
2018-05-15T05:32:41.331Z,14.53
2018-05-15T05:35:08.402Z,14.73
2018-05-15T05:37:35.536Z,15.29
2018-05-15T05:40:02.739Z,16.49
2018-05-15T05:42:29.030Z,16.72
2018-05-15T05:44:55.598Z,16.76
2018-05-15T05:47:21.941Z,16.99
2018-05-15T05:49:49.001Z,17.19
2018-05-15T05:52:15.481Z,16.91
2018-05-15T05:54:41.794Z,16.37
2018-05-15T05:57:08.926Z,16.18
2018-05-15T05:59:35.311Z,16.58
2018-05-15T06:02:01.648Z,16.23
2018-05-15T06:04:27.995Z,15.81
2018-05-15T06:06:54.449Z,16.03
2018-05-15T06:09:20.774Z,16.59
2018-05-15T06:11:47.088Z,15.83
2018-05-15T06:14:13.497Z,15.63
2018-05-15T06:16:40.538Z,15.79
2018-05-15T06:19:06.835Z,15.83
2018-05-15T06:21:33.901Z,15.27
2018-05-15T06:24:00.215Z,15.52
2018-05-15T06:26:26.554Z,15.50
2018-05-15T06:28:52.873Z,15.26
2018-05-15T06:31:20.051Z,15.44
2018-05-15T06:33:46.490Z,15.63
2018-05-15T06:36:12.808Z,15.47
2018-05-15T06:38:39.151Z,16.16
2018-05-15T06:41:05.469Z,16.04
2018-05-15T06:43:32.176Z,16.09
2018-05-15T06:45:59.220Z,16.28
2018-05-15T06:48:26.417Z,16.29
2018-05-15T06:50:52.732Z,16.29
2018-05-15T06:53:19.122Z,16.16
2018-05-15T06:55:46.184Z,16.29
2018-05-15T06:58:12.550Z,15.93
2018-05-15T07:00:38.889Z,15.88
2018-05-15T07:03:05.411Z,15.81
2018-05-15T07:05:31.839Z,15.93
2018-05-15T07:07:58.181Z,15.96
2018-05-15T07:10:24.550Z,16.08
2018-05-15T07:12:50.938Z,16.04
2018-05-15T07:15:17.367Z,16.68
2018-05-15T07:17:43.699Z,16.49
2018-05-15T07:20:10.051Z,16.71
2018-05-15T07:22:36.360Z,16.70
2018-05-15T07:25:02.770Z,16.56
2018-05-15T07:27:29.195Z,16.38
2018-05-15T07:29:55.498Z,16.47
2018-05-15T07:32:22.686Z,16.68
2018-05-15T07:34:49.017Z,16.77
2018-05-15T07:37:15.373Z,17.05
2018-05-15T07:39:41.719Z,16.95
2018-05-15T07:42:08.798Z,17.13
2018-05-15T07:44:35.901Z,17.42
2018-05-15T07:47:03.086Z,17.55
2018-05-15T07:49:30.138Z,17.64
2018-05-15T07:51:57.229Z,17.50
2018-05-15T07:54:23.603Z,17.47
2018-05-15T07:56:49.926Z,17.58
2018-05-15T07:59:16.286Z,17.80
2018-05-15T08:01:42.669Z,17.94
2018-05-15T08:04:09.163Z,18.19
2018-05-15T08:06:36.438Z,18.66
2018-05-15T08:09:02.990Z,18.89
2018-05-15T08:11:29.392Z,18.59
2018-05-15T08:13:55.763Z,18.58
2018-05-15T08:16:22.184Z,18.74
2018-05-15T08:18:48.522Z,18.72
2018-05-15T08:21:14.845Z,18.79
2018-05-15T08:23:41.170Z,19.35
2018-05-15T08:26:07.521Z,19.27
2018-05-15T08:28:33.864Z,18.92
2018-05-15T08:31:00.276Z,18.83
2018-05-15T08:33:26.683Z,18.53
2018-05-15T08:35:53.044Z,18.72
2018-05-15T08:38:19.377Z,18.98
2018-05-15T08:40:45.680Z,19.40
2018-05-15T08:43:12.004Z,19.48
2018-05-15T08:45:38.365Z,19.53
2018-05-15T08:48:04.762Z,19.62
2018-05-15T08:50:31.088Z,19.73
2018-05-15T08:52:57.413Z,19.81
2018-05-15T08:55:23.720Z,20.25
2018-05-15T08:57:50.032Z,20.44
2018-05-15T09:00:16.393Z,20.74
2018-05-15T09:02:42.703Z,21.10
2018-05-15T09:05:09.067Z,21.19
2018-05-15T09:07:35.419Z,20.89
2018-05-15T09:10:01.792Z,20.74
2018-05-15T09:12:28.121Z,20.54
2018-05-15T09:14:54.562Z,20.73
2018-05-15T09:17:20.965Z,20.37
2018-05-15T09:19:48.014Z,20.21
2018-05-15T09:22:15.090Z,20.28
2018-05-15T09:24:41.394Z,20.29
2018-05-15T09:27:08.446Z,20.44
2018-05-15T09:29:34.790Z,21.03
2018-05-15T09:32:01.113Z,21.52
2018-05-15T09:34:27.533Z,21.25
2018-05-15T09:36:54.600Z,21.66
2018-05-15T09:39:20.939Z,21.64
2018-05-15T09:41:47.477Z,21.56
2018-05-15T09:44:13.861Z,21.40
2018-05-15T09:46:40.943Z,21.46
2018-05-15T09:49:07.366Z,21.84
2018-05-15T09:51:33.839Z,22.03
2018-05-15T09:54:00.225Z,21.85
2018-05-15T09:56:26.580Z,21.96
2018-05-15T09:58:52.943Z,22.38
2018-05-15T10:01:19.682Z,22.43
2018-05-15T10:03:46.036Z,22.30
2018-05-15T10:06:13.218Z,22.52
2018-05-15T10:08:39.537Z,22.63
2018-05-15T10:11:05.975Z,22.33
2018-05-15T10:13:32.362Z,22.84
2018-05-15T10:15:59.540Z,22.80
2018-05-15T10:18:25.996Z,23.20
2018-05-15T10:20:52.429Z,23.24
2018-05-15T10:23:18.985Z,23.21
2018-05-15T10:25:45.423Z,23.11
2018-05-15T10:28:11.880Z,22.63
2018-05-15T10:30:38.985Z,22.63
2018-05-15T10:33:05.419Z,23.01
2018-05-15T10:35:31.791Z,22.45
2018-05-15T10:37:58.959Z,22.20
2018-05-15T10:40:26.031Z,22.12
2018-05-15T10:42:52.638Z,21.74
2018-05-15T10:45:19.750Z,21.54
2018-05-15T10:47:46.256Z,21.23
2018-05-15T10:50:12.723Z,21.40
2018-05-15T10:52:39.261Z,21.28
2018-05-15T10:55:05.644Z,21.52
2018-05-15T10:57:32.130Z,22.09
2018-05-15T10:59:59.240Z,22.10
2018-05-15T11:02:26.831Z,21.90
2018-05-15T11:04:53.423Z,21.88
2018-05-15T11:07:19.856Z,22.12
2018-05-15T11:09:46.390Z,22.32
2018-05-15T11:12:12.816Z,22.66
2018-05-15T11:14:39.365Z,22.41
2018-05-15T11:17:05.766Z,23.14
2018-05-15T11:19:50.835Z,23.27
2018-05-15T11:22:36.335Z,22.71
2018-05-15T11:25:02.873Z,22.35
2018-05-15T11:27:29.376Z,22.11
2018-05-15T11:29:55.814Z,21.70
2018-05-15T11:32:22.211Z,21.75
2018-05-15T11:34:48.592Z,22.17
2018-05-15T11:37:14.954Z,22.43
2018-05-15T11:39:41.312Z,23.00
2018-05-15T11:42:08.432Z,23.70
2018-05-15T11:44:34.790Z,23.54
2018-05-15T11:47:01.371Z,24.22
2018-05-15T11:49:28.437Z,24.21
2018-05-15T11:51:55.183Z,23.86
2018-05-15T11:54:20.938Z,23.24
2018-05-15T11:56:48.227Z,22.62
2018-05-15T11:59:14.647Z,22.25
2018-05-15T12:01:41.199Z,22.02
2018-05-15T12:04:07.993Z,22.25
2018-05-15T12:06:39.207Z,22.75
2018-05-15T12:09:06.613Z,23.64
2018-05-15T12:11:33.190Z,23.72
2018-05-15T12:14:00.086Z,23.44
2018-05-15T12:16:27.332Z,23.48
2018-05-15T12:18:54.164Z,23.72
2018-05-15T12:21:20.551Z,23.55
2018-05-15T12:23:46.975Z,23.60
2018-05-15T12:26:13.606Z,23.38
2018-05-15T12:28:40.061Z,24.05
2018-05-15T12:31:06.853Z,24.17
2018-05-15T12:33:33.326Z,24.61
2018-05-15T12:35:59.814Z,24.32
2018-05-15T12:38:26.322Z,23.84
2018-05-15T12:40:52.692Z,23.65
2018-05-15T12:43:19.014Z,22.95
2018-05-15T12:45:45.397Z,22.54
2018-05-15T12:48:12.020Z,22.20
2018-05-15T12:50:39.060Z,22.24
2018-05-15T12:53:05.413Z,22.07
2018-05-15T12:55:31.835Z,22.17
2018-05-15T12:57:58.305Z,23.12
2018-05-15T13:00:24.729Z,23.62
2018-05-15T13:02:51.826Z,24.32
2018-05-15T13:05:18.301Z,24.93
2018-05-15T13:07:44.783Z,25.27
2018-05-15T13:10:11.352Z,25.12
2018-05-15T13:12:37.761Z,24.10
2018-05-15T13:15:04.243Z,24.08
2018-05-15T13:17:31.343Z,23.63
2018-05-15T13:19:57.711Z,23.84
2018-05-15T13:22:24.145Z,23.91
2018-05-15T13:24:50.602Z,23.80
2018-05-15T13:27:17.070Z,23.25
2018-05-15T13:29:43.566Z,23.32
2018-05-15T13:32:10.142Z,23.59
2018-05-15T13:34:37.311Z,23.91
2018-05-15T13:37:04.575Z,23.89
2018-05-15T13:39:30.966Z,23.97
2018-05-15T13:41:57.474Z,24.19
2018-05-15T13:44:23.930Z,23.93
2018-05-15T13:46:50.290Z,24.02
2018-05-15T13:49:16.721Z,23.73
2018-05-15T13:51:43.364Z,23.83
2018-05-15T13:54:09.772Z,23.50
2018-05-15T13:56:36.143Z,23.38
2018-05-15T13:59:03.252Z,22.60
2018-05-15T14:01:29.723Z,22.24
2018-05-15T14:03:56.830Z,22.08
2018-05-15T14:06:23.660Z,22.10
2018-05-15T14:08:50.064Z,22.01
2018-05-15T14:11:16.428Z,21.75
2018-05-15T14:13:43.069Z,21.99
2018-05-15T14:16:09.490Z,21.85
2018-05-15T14:18:35.831Z,21.99
2018-05-15T14:21:02.493Z,22.24
2018-05-15T14:23:28.796Z,22.64
2018-05-15T14:25:55.253Z,22.93
2018-05-15T14:28:21.601Z,23.14
2018-05-15T14:30:47.887Z,23.41
2018-05-15T14:33:14.313Z,23.27
2018-05-15T14:35:40.661Z,23.29
2018-05-15T14:38:07.069Z,23.25
2018-05-15T14:40:34.277Z,23.59
2018-05-15T14:43:13.789Z,23.29
2018-05-15T14:45:40.293Z,23.14
2018-05-15T14:48:06.769Z,22.93
2018-05-15T14:50:48.139Z,22.76
2018-05-15T14:53:14.519Z,22.78
2018-05-15T14:55:40.942Z,22.69
2018-05-15T14:58:07.385Z,22.59
2018-05-15T15:00:33.794Z,22.40
2018-05-15T15:03:00.897Z,22.40
2018-05-15T15:05:27.225Z,22.23
2018-05-15T15:07:53.581Z,22.03
2018-05-15T15:10:24.090Z,21.87
2018-05-15T15:12:50.429Z,21.34
2018-05-15T15:15:16.832Z,21.19
2018-05-15T15:17:43.182Z,20.55
2018-05-15T15:20:09.588Z,19.97
2018-05-15T15:22:36.073Z,19.56
2018-05-15T15:25:06.503Z,19.40
2018-05-15T15:27:33.180Z,19.40
2018-05-15T15:29:59.564Z,19.22
2018-05-15T15:32:25.874Z,19.08
2018-05-15T15:34:52.196Z,19.03
2018-05-15T15:37:18.588Z,18.93
2018-05-15T15:39:44.983Z,18.48
2018-05-15T15:42:11.322Z,17.16
2018-05-15T15:44:37.788Z,14.42
2018-05-15T15:47:04.227Z,14.23
2018-05-15T15:49:30.717Z,14.12
2018-05-15T15:51:57.871Z,14.11
2018-05-15T15:54:24.271Z,14.13
2018-05-15T15:56:50.579Z,14.38
2018-05-15T15:59:16.931Z,14.51
2018-05-15T16:01:43.220Z,14.63
2018-05-15T16:04:09.712Z,14.84
2018-05-15T16:06:36.828Z,15.12
2018-05-15T16:09:07.724Z,15.14
2018-05-15T16:11:34.303Z,15.61
2018-05-15T16:14:00.872Z,16.01
2018-05-15T16:16:28.076Z,16.11
2018-05-15T16:18:54.591Z,16.18
2018-05-15T16:21:21.092Z,16.11
2018-05-15T16:23:48.431Z,16.18
2018-05-15T16:26:14.874Z,16.16
2018-05-15T16:28:41.951Z,16.13
2018-05-15T16:31:08.396Z,16.15
2018-05-15T16:33:34.946Z,16.49
2018-05-15T16:36:01.408Z,16.26
2018-05-15T16:38:27.902Z,16.19
2018-05-15T16:40:54.321Z,15.86
2018-05-15T16:43:20.703Z,15.89
2018-05-15T16:45:47.280Z,16.09
2018-05-15T16:48:13.746Z,16.37
2018-05-15T16:50:40.133Z,16.31
2018-05-15T16:53:07.332Z,16.49
2018-05-15T16:55:34.524Z,16.55
2018-05-15T16:58:00.983Z,17.00
2018-05-15T17:00:27.516Z,16.81
2018-05-15T17:02:54.165Z,17.09
2018-05-15T17:05:20.799Z,17.22
2018-05-15T17:07:48.271Z,17.40
2018-05-15T17:10:14.840Z,17.36
2018-05-15T17:12:42.397Z,17.10
2018-05-15T17:15:09.599Z,17.12
2018-05-15T17:17:36.196Z,16.81
2018-05-15T17:20:03.562Z,17.03
2018-05-15T17:22:30.219Z,17.88
2018-05-15T17:24:56.633Z,17.70
2018-05-15T17:27:23.175Z,17.45
2018-05-15T17:29:49.955Z,17.40
2018-05-15T17:32:16.678Z,17.15
2018-05-15T17:34:43.180Z,16.82
2018-05-15T17:37:09.589Z,16.59
2018-05-15T17:39:36.417Z,16.50
2018-05-15T17:42:03.135Z,16.43
2018-05-15T17:44:29.787Z,16.36
2018-05-15T17:46:56.396Z,16.22
2018-05-15T17:49:23.098Z,16.23
2018-05-15T17:51:49.479Z,16.20
2018-05-15T17:54:16.172Z,16.33
2018-05-15T17:56:42.692Z,16.34
2018-05-15T17:59:10.009Z,16.20
2018-05-15T18:01:36.531Z,16.17
2018-05-15T18:04:03.119Z,16.24
2018-05-15T18:06:29.653Z,16.28
2018-05-15T18:08:56.138Z,16.30
2018-05-15T18:11:22.693Z,16.15
2018-05-15T18:13:49.159Z,15.91
2018-05-15T18:16:16.443Z,15.59
2018-05-15T18:18:43.027Z,15.43
2018-05-15T18:21:10.390Z,15.41
2018-05-15T18:23:36.772Z,15.52
2018-05-15T18:26:03.287Z,15.42
2018-05-15T18:28:29.886Z,15.28
2018-05-15T18:30:57.137Z,15.11
2018-05-15T18:33:24.543Z,15.30
2018-05-15T18:35:50.963Z,15.50
2018-05-15T18:38:19.048Z,15.74
2018-05-15T18:40:45.527Z,15.97
2018-05-15T18:43:12.751Z,16.09
2018-05-15T18:45:41.484Z,16.18
2018-05-15T18:48:08.045Z,16.18
2018-05-15T18:50:34.432Z,16.26
2018-05-15T18:53:01.691Z,16.32
2018-05-15T18:55:28.947Z,16.31
2018-05-15T18:57:55.396Z,16.27
2018-05-15T19:00:22.450Z,16.25
2018-05-15T19:02:48.803Z,16.33
2018-05-15T19:05:15.173Z,16.20
2018-05-15T19:07:42.335Z,16.08
2018-05-15T19:10:09.879Z,15.81
2018-05-15T19:12:37.093Z,15.63
2018-05-15T19:15:03.501Z,15.86
2018-05-15T19:17:29.903Z,16.10
2018-05-15T19:19:57.083Z,15.64
2018-05-15T19:22:23.478Z,15.48
2018-05-15T19:24:50.679Z,15.46
2018-05-15T19:27:17.277Z,15.27
2018-05-15T19:29:43.818Z,15.45
2018-05-15T19:32:16.343Z,15.51
2018-05-15T19:34:48.808Z,15.38
2018-05-15T19:37:15.904Z,15.55
2018-05-15T19:39:43.389Z,15.45
2018-05-15T19:42:09.781Z,15.64
2018-05-15T19:44:37.008Z,15.86
2018-05-15T19:47:03.475Z,15.92
2018-05-15T19:49:30.649Z,15.63
2018-05-15T19:51:56.961Z,15.67
2018-05-15T19:54:23.355Z,15.59
2018-05-15T19:56:49.977Z,15.48
2018-05-15T19:59:16.386Z,15.39
2018-05-15T20:01:42.769Z,15.36
2018-05-15T20:04:09.888Z,15.50
2018-05-15T20:06:36.323Z,15.50
2018-05-15T20:09:06.128Z,15.35
2018-05-15T20:11:32.646Z,15.40
2018-05-15T20:13:58.998Z,15.33
2018-05-15T20:16:25.410Z,15.20
2018-05-15T20:18:51.784Z,15.37
2018-05-15T20:21:18.287Z,15.32
2018-05-15T20:23:44.940Z,15.37
2018-05-15T20:26:11.295Z,15.37
2018-05-15T20:28:38.104Z,15.29
2018-05-15T20:31:04.551Z,15.22
2018-05-15T20:33:30.998Z,15.11
2018-05-15T20:35:58.423Z,14.98
2018-05-15T20:38:25.062Z,14.99
2018-05-15T20:40:51.534Z,14.90
2018-05-15T20:43:19.431Z,14.87
2018-05-15T20:45:45.978Z,14.99
2018-05-15T20:48:12.375Z,14.88
2018-05-15T20:50:38.721Z,14.90
2018-05-15T20:53:05.144Z,14.88
2018-05-15T20:55:31.559Z,14.87
2018-05-15T20:57:57.962Z,14.97
2018-05-15T21:00:24.364Z,15.07
2018-05-15T21:02:50.770Z,15.13
2018-05-15T21:05:17.091Z,15.15
2018-05-15T21:07:43.559Z,15.06
2018-05-15T21:10:10.942Z,14.94
2018-05-15T21:12:37.300Z,15.00
2018-05-15T21:15:03.969Z,14.88
2018-05-15T21:17:30.308Z,14.83
2018-05-15T21:22:32.854Z,14.90
2018-05-15T21:24:59.264Z,14.97
2018-05-15T21:27:25.633Z,15.03
2018-05-15T21:29:51.990Z,15.19
2018-05-15T21:32:18.372Z,15.14
2018-05-15T21:34:45.458Z,15.28
2018-05-15T21:37:11.832Z,15.14
2018-05-15T21:39:38.201Z,15.14
2018-05-15T21:42:04.548Z,15.05
2018-05-15T21:44:30.961Z,14.86
2018-05-15T21:46:57.329Z,14.80
2018-05-15T21:49:24.231Z,14.91
2018-05-15T21:51:50.591Z,15.19
2018-05-15T21:54:16.997Z,15.14
2018-05-15T21:56:43.352Z,15.20
2018-05-15T21:59:09.864Z,15.04
2018-05-15T22:01:36.259Z,15.01
2018-05-15T22:04:03.452Z,14.92
2018-05-15T22:06:29.879Z,14.89
2018-05-15T22:08:56.310Z,14.75
2018-05-15T22:11:22.411Z,14.67
2018-05-15T22:14:07.171Z,14.68
2018-05-15T22:16:52.025Z,14.59
2018-05-15T22:19:36.720Z,14.67
2018-05-15T22:22:13.863Z,14.77
2018-05-15T22:24:41.012Z,14.69
2018-05-15T22:27:08.099Z,14.65
2018-05-15T22:29:34.545Z,14.53
2018-05-15T22:32:00.976Z,14.47
2018-05-15T22:34:27.819Z,14.54
2018-05-15T22:36:54.190Z,14.60
2018-05-15T22:39:21.817Z,14.54
2018-05-15T22:41:48.137Z,14.54
2018-05-15T22:44:14.462Z,14.86
2018-05-15T22:46:42.688Z,14.82
2018-05-15T22:49:08.959Z,14.79
2018-05-15T22:51:35.294Z,14.75
2018-05-15T22:54:01.639Z,14.74
2018-05-15T22:56:28.118Z,14.59
2018-05-15T22:58:55.198Z,14.69
2018-05-15T23:01:21.795Z,14.58
2018-05-15T23:03:48.143Z,14.67
2018-05-15T23:06:14.496Z,14.62
2018-05-15T23:08:46.471Z,14.48
2018-05-15T23:11:13.806Z,14.46
2018-05-15T23:13:40.262Z,14.46
2018-05-15T23:16:06.652Z,14.48
2018-05-15T23:18:33.211Z,14.38
2018-05-15T23:20:59.829Z,14.33
2018-05-15T23:23:30.372Z,14.31
2018-05-15T23:25:56.806Z,14.42
2018-05-15T23:28:23.221Z,14.46
2018-05-15T23:30:50.912Z,14.36
2018-05-15T23:33:17.341Z,14.47
2018-05-15T23:35:47.927Z,14.31
2018-05-15T23:38:14.996Z,14.41
2018-05-15T23:40:45.561Z,14.47
2018-05-15T23:43:12.336Z,14.37
2018-05-15T23:45:39.433Z,14.59
2018-05-15T23:48:05.756Z,14.65
2018-05-15T23:50:37.290Z,14.42
2018-05-15T23:53:03.611Z,14.31
2018-05-15T23:55:29.988Z,14.15
2018-05-15T23:57:56.395Z,14.02
